createdAt,value
2023-03-05T00:01:30.249Z,32.89
2023-03-05T00:03:58.809Z,32.86
2023-03-05T00:06:29.731Z,32.73
2023-03-05T00:08:59.580Z,32.93
2023-03-05T00:11:30.318Z,32.83
2023-03-05T00:13:59.921Z,32.73
2023-03-05T00:16:29.415Z,32.87
2023-03-05T00:18:59.147Z,32.74
2023-03-05T00:21:29.475Z,32.70
2023-03-05T00:24:01.667Z,32.89
2023-03-05T00:26:31.179Z,32.80
2023-03-05T00:29:00.150Z,32.75
2023-03-05T00:31:31.233Z,32.68
2023-03-05T00:34:01.686Z,32.69
2023-03-05T00:36:30.245Z,32.77
2023-03-05T00:39:00.312Z,32.86
2023-03-05T00:41:29.005Z,32.75
2023-03-05T00:43:57.249Z,32.68
2023-03-05T00:46:27.537Z,32.76
2023-03-05T00:48:56.235Z,32.69
2023-03-05T00:51:24.548Z,32.86
2023-03-05T00:53:52.716Z,32.77
2023-03-05T00:56:22.430Z,32.70
2023-03-05T00:58:50.585Z,32.62
2023-03-05T01:01:18.732Z,32.67
2023-03-05T01:03:46.905Z,32.84
2023-03-05T01:06:16.591Z,32.68
2023-03-05T01:08:44.797Z,32.80
2023-03-05T01:11:13.576Z,32.69
2023-03-05T01:13:43.234Z,32.74
2023-03-05T01:16:11.335Z,32.70
2023-03-05T01:18:40.601Z,32.64
2023-03-05T01:21:09.084Z,32.78
2023-03-05T01:23:37.574Z,32.68
2023-03-05T01:26:06.307Z,32.58
2023-03-05T01:28:34.370Z,32.66
2023-03-05T01:31:04.143Z,32.66
2023-03-05T01:33:32.221Z,32.56
2023-03-05T01:36:00.303Z,32.70
2023-03-05T01:38:28.361Z,32.61
2023-03-05T01:40:56.406Z,32.57
2023-03-05T01:43:27.470Z,32.61
2023-03-05T01:46:38.166Z,32.16
2023-03-05T01:49:18.712Z,32.31
2023-03-05T01:51:56.588Z,32.50
2023-03-05T01:54:28.260Z,32.68
2023-03-05T01:57:00.415Z,32.58
2023-03-05T01:59:29.242Z,32.58
2023-03-05T02:02:00.746Z,32.57
2023-03-05T02:04:37.585Z,32.54
2023-03-05T02:07:06.376Z,32.54
2023-03-05T02:09:34.507Z,32.62
2023-03-05T02:12:02.585Z,32.51
2023-03-05T02:14:30.736Z,32.64
2023-03-05T02:17:00.286Z,32.59
2023-03-05T02:19:28.756Z,32.46
2023-03-05T02:21:58.201Z,32.56
2023-03-05T02:24:37.604Z,32.08
2023-03-05T02:27:07.088Z,32.45
2023-03-05T02:29:38.091Z,32.47
2023-03-05T02:32:06.921Z,32.55
2023-03-05T02:34:35.093Z,32.40
2023-03-05T02:37:04.877Z,32.39
2023-03-05T02:39:33.461Z,32.37
2023-03-05T02:42:01.490Z,32.31
2023-03-05T02:44:29.591Z,32.36
2023-03-05T02:46:57.620Z,32.33
2023-03-05T02:49:25.766Z,32.30
2023-03-05T02:51:53.905Z,32.23
2023-03-05T02:54:23.641Z,32.39
2023-03-05T02:56:51.761Z,32.43
2023-03-05T02:59:19.887Z,32.41
2023-03-05T03:01:48.003Z,32.22
2023-03-05T03:04:16.086Z,32.22
2023-03-05T03:06:44.224Z,32.23
2023-03-05T03:09:12.358Z,32.22
2023-03-05T03:11:41.870Z,32.27
2023-03-05T03:14:10.046Z,32.23
2023-03-05T03:16:38.319Z,32.23
2023-03-05T03:19:06.757Z,32.22
2023-03-05T03:21:34.844Z,32.25
2023-03-05T03:24:03.016Z,32.22
2023-03-05T03:26:31.987Z,32.34
2023-03-05T03:29:01.554Z,32.21
2023-03-05T03:31:29.642Z,32.27
2023-03-05T03:33:57.748Z,32.14
2023-03-05T03:36:25.871Z,32.21
2023-03-05T03:38:53.955Z,32.11
2023-03-05T03:41:22.053Z,32.26
2023-03-05T03:43:50.154Z,32.27
2023-03-05T03:46:19.748Z,32.14
2023-03-05T03:48:51.477Z,32.14
2023-03-05T03:51:19.798Z,32.17
2023-03-05T03:53:47.910Z,32.16
2023-03-05T03:56:16.011Z,32.21
2023-03-05T03:58:44.084Z,32.12
2023-03-05T04:01:12.354Z,31.99
2023-03-05T04:03:41.882Z,32.05
2023-03-05T04:06:09.978Z,32.16
2023-03-05T04:08:38.372Z,32.11
2023-03-05T04:11:06.604Z,32.11
2023-03-05T04:13:34.848Z,32.14
2023-03-05T04:16:03.071Z,32.25
2023-03-05T04:18:32.591Z,32.10
2023-03-05T04:21:02.220Z,32.15
2023-03-05T04:23:30.368Z,32.04
2023-03-05T04:25:58.549Z,32.03
2023-03-05T04:28:26.694Z,32.04
2023-03-05T04:30:54.877Z,32.11
2023-03-05T04:33:22.972Z,32.12
2023-03-05T04:35:51.426Z,32.02
2023-03-05T04:38:21.026Z,32.09
2023-03-05T04:40:49.339Z,32.01
2023-03-05T04:43:17.414Z,31.92
2023-03-05T04:45:45.897Z,31.93
2023-03-05T04:48:14.376Z,32.09
2023-03-05T04:50:42.589Z,32.01
2023-03-05T04:53:10.688Z,31.93
2023-03-05T04:55:40.200Z,31.90
2023-03-05T04:58:08.388Z,31.84
2023-03-05T05:00:37.088Z,32.01
2023-03-05T05:03:05.329Z,31.85
2023-03-05T05:05:33.628Z,31.92
2023-03-05T05:08:01.808Z,31.87
2023-03-05T05:10:29.931Z,31.97
2023-03-05T05:12:59.438Z,31.80
2023-03-05T05:15:27.590Z,31.86
2023-03-05T05:17:55.724Z,31.87
2023-03-05T05:20:24.081Z,31.94
2023-03-05T05:22:52.451Z,31.90
2023-03-05T05:25:20.675Z,31.81
2023-03-05T05:27:48.792Z,31.85
2023-03-05T05:30:18.511Z,31.87
2023-03-05T05:32:46.645Z,31.95
2023-03-05T05:35:14.757Z,31.69
2023-03-05T05:37:42.900Z,32.04
2023-03-05T05:40:12.264Z,31.81
2023-03-05T05:42:40.367Z,31.84
2023-03-05T05:45:10.140Z,31.91
2023-03-05T05:47:39.834Z,31.58
2023-03-05T05:50:09.073Z,31.82
2023-03-05T05:52:37.163Z,31.72
2023-03-05T05:55:06.120Z,31.86
2023-03-05T05:57:35.011Z,31.84
2023-03-05T06:00:03.385Z,31.90
2023-03-05T06:02:31.498Z,31.63
2023-03-05T06:05:00.956Z,31.68
2023-03-05T06:07:29.111Z,31.77
2023-03-05T06:09:57.182Z,31.68
2023-03-05T06:12:25.267Z,31.73
2023-03-05T06:14:53.972Z,31.65
2023-03-05T06:17:30.376Z,31.58
2023-03-05T06:20:01.169Z,31.80
2023-03-05T06:22:29.351Z,31.67
2023-03-05T06:24:57.570Z,31.68
2023-03-05T06:27:25.683Z,31.62
2023-03-05T06:29:54.870Z,31.64
2023-03-05T06:32:23.048Z,31.76
2023-03-05T06:34:51.766Z,31.60
2023-03-05T06:37:21.280Z,31.64
2023-03-05T06:39:49.413Z,31.70
2023-03-05T06:42:19.474Z,31.57
2023-03-05T06:44:48.372Z,31.79
2023-03-05T06:47:16.745Z,31.64
2023-03-05T06:49:44.885Z,31.74
2023-03-05T06:52:12.980Z,31.58
2023-03-05T06:54:42.466Z,31.83
2023-03-05T06:57:11.703Z,31.66
2023-03-05T06:59:39.753Z,31.70
2023-03-05T07:02:07.914Z,31.78
2023-03-05T07:04:35.994Z,31.75
2023-03-05T07:07:04.078Z,31.77
2023-03-05T07:09:32.156Z,31.64
2023-03-05T07:12:01.625Z,31.70
2023-03-05T07:14:29.700Z,31.73
2023-03-05T07:16:57.834Z,31.65
2023-03-05T07:19:25.889Z,31.68
2023-03-05T07:21:53.924Z,31.72
2023-03-05T07:24:22.937Z,31.69
2023-03-05T07:26:51.226Z,31.63
2023-03-05T07:29:20.872Z,31.74
2023-03-05T07:31:48.907Z,31.74
2023-03-05T07:34:17.150Z,31.77
2023-03-05T07:36:45.316Z,31.75
2023-03-05T07:39:14.187Z,31.79
2023-03-05T07:41:42.277Z,31.78
2023-03-05T07:44:11.267Z,31.73
2023-03-05T07:46:40.711Z,31.73
2023-03-05T07:49:08.927Z,31.77
2023-03-05T07:51:37.449Z,31.78
2023-03-05T07:54:05.802Z,31.77
2023-03-05T07:56:36.342Z,31.80
2023-03-05T07:59:07.034Z,31.72
2023-03-05T08:01:36.027Z,31.73
2023-03-05T08:04:06.769Z,31.83
2023-03-05T08:06:35.187Z,31.82
2023-03-05T08:09:03.364Z,31.64
2023-03-05T08:11:31.474Z,31.78
2023-03-05T08:14:00.553Z,31.77
2023-03-05T08:16:28.767Z,31.72
2023-03-05T08:18:57.955Z,31.61
2023-03-05T08:21:30.076Z,31.69
2023-03-05T08:23:58.852Z,31.75
2023-03-05T08:26:30.956Z,31.64
2023-03-05T08:28:59.897Z,31.65
2023-03-05T08:31:30.390Z,31.66
2023-03-05T08:34:00.701Z,31.68
2023-03-05T08:36:30.643Z,31.79
2023-03-05T08:38:59.785Z,31.67
2023-03-05T08:41:28.168Z,31.73
2023-03-05T08:43:56.712Z,31.59
2023-03-05T08:46:25.691Z,31.58
2023-03-05T08:48:54.042Z,31.60
2023-03-05T08:51:25.558Z,31.65
2023-03-05T08:53:56.905Z,31.72
2023-03-05T08:56:26.350Z,31.73
2023-03-05T08:58:54.551Z,31.59
2023-03-05T09:01:24.066Z,31.75
2023-03-05T09:03:52.425Z,31.64
2023-03-05T09:06:20.761Z,31.59
2023-03-05T09:08:48.965Z,31.74
2023-03-05T09:11:18.874Z,31.62
2023-03-05T09:13:47.227Z,31.62
2023-03-05T09:16:17.087Z,31.61
2023-03-05T09:18:45.415Z,31.65
2023-03-05T09:21:15.982Z,31.54
2023-03-05T09:23:47.334Z,31.63
2023-03-05T09:26:19.417Z,31.82
2023-03-05T09:28:49.425Z,31.52
2023-03-05T09:31:18.019Z,31.58
2023-03-05T09:33:46.247Z,31.65
2023-03-05T09:36:20.947Z,31.57
2023-03-05T09:38:49.225Z,31.60
2023-03-05T09:41:24.943Z,31.69
2023-03-05T09:44:03.768Z,31.63
2023-03-05T09:46:47.891Z,31.55
2023-03-05T09:49:19.707Z,31.57
2023-03-05T09:51:53.287Z,31.78
2023-03-05T09:54:24.805Z,31.63
2023-03-05T09:56:57.864Z,31.58
2023-03-05T09:59:36.090Z,31.59
2023-03-05T10:02:13.893Z,31.53
2023-03-05T10:04:48.689Z,31.57
2023-03-05T10:07:21.354Z,31.65
2023-03-05T10:09:55.779Z,31.73
2023-03-05T10:12:34.587Z,31.67
2023-03-05T10:15:04.228Z,31.61
2023-03-05T10:17:51.894Z,31.41
2023-03-05T10:20:55.408Z,31.30
2023-03-05T10:24:00.415Z,31.35
2023-03-05T10:26:51.952Z,31.46
2023-03-05T10:29:39.939Z,31.61
2023-03-05T10:32:23.490Z,31.33
2023-03-05T10:35:14.252Z,31.44
2023-03-05T10:37:56.407Z,31.49
2023-03-05T10:40:32.664Z,31.66
2023-03-05T10:43:09.690Z,31.60
2023-03-05T10:45:41.636Z,31.64
2023-03-05T10:48:17.156Z,31.50
2023-03-05T10:50:49.693Z,31.79
2023-03-05T10:53:25.780Z,31.58
2023-03-05T10:55:56.605Z,31.56
2023-03-05T10:58:26.372Z,31.59
2023-03-05T11:01:05.915Z,31.43
2023-03-05T11:03:54.518Z,31.33
2023-03-05T11:06:37.929Z,31.37
2023-03-05T11:09:24.332Z,31.38
2023-03-05T11:12:22.637Z,31.23
2023-03-05T11:15:05.613Z,31.35
2023-03-05T11:17:37.523Z,31.59
2023-03-05T11:20:35.338Z,31.34
2023-03-05T11:23:06.011Z,31.45
2023-03-05T11:25:36.141Z,31.72
2023-03-05T11:28:05.297Z,31.63
2023-03-05T11:30:37.387Z,31.57
2023-03-05T11:33:11.491Z,31.56
2023-03-05T11:35:43.218Z,31.64
2023-03-05T11:38:19.477Z,31.51
2023-03-05T11:40:48.519Z,31.67
2023-03-05T11:43:18.612Z,31.64
2023-03-05T11:45:48.974Z,31.64
2023-03-05T11:48:22.695Z,31.66
2023-03-05T11:50:56.107Z,31.80
2023-03-05T11:53:29.572Z,31.94
2023-03-05T11:56:03.379Z,31.61
2023-03-05T11:58:35.997Z,31.69
2023-03-05T12:01:07.863Z,31.64
2023-03-05T12:03:39.793Z,31.81
2023-03-05T12:06:19.063Z,31.59
2023-03-05T12:08:51.364Z,31.64
2023-03-05T12:11:23.008Z,31.63
2023-03-05T12:13:53.945Z,31.75
2023-03-05T12:16:29.820Z,31.73
2023-03-05T12:19:18.484Z,31.58
2023-03-05T12:21:52.131Z,31.71
2023-03-05T12:24:38.455Z,31.40
2023-03-05T12:27:15.992Z,31.71
2023-03-05T12:29:49.420Z,31.59
2023-03-05T12:33:00.911Z,31.42
2023-03-05T12:35:37.077Z,31.74
2023-03-05T12:38:34.582Z,31.41
2023-03-05T12:41:37.687Z,31.32
2023-03-05T12:44:26.588Z,31.31
2023-03-05T12:47:17.907Z,31.42
2023-03-05T12:49:47.965Z,31.77
2023-03-05T12:52:24.622Z,31.59
2023-03-05T12:55:06.218Z,31.55
2023-03-05T12:57:35.019Z,31.54
2023-03-05T13:00:06.575Z,31.76
2023-03-05T13:02:38.682Z,31.61
2023-03-05T13:05:18.807Z,31.90
2023-03-05T13:07:46.910Z,31.58
2023-03-05T13:10:25.977Z,31.63
2023-03-05T13:12:56.402Z,31.66
2023-03-05T13:15:25.820Z,31.65
2023-03-05T13:17:57.736Z,31.91
2023-03-05T13:20:34.867Z,31.67
2023-03-05T13:23:22.688Z,31.41
2023-03-05T13:26:03.716Z,31.61
2023-03-05T13:28:33.752Z,31.68
2023-03-05T13:31:04.044Z,31.81
2023-03-05T13:33:33.912Z,31.65
2023-03-05T13:36:02.877Z,31.69
2023-03-05T13:38:35.797Z,31.68
2023-03-05T13:41:21.442Z,31.73
2023-03-05T13:43:51.195Z,31.65
2023-03-05T13:46:28.280Z,31.49
2023-03-05T13:48:56.849Z,31.59
2023-03-05T13:51:25.811Z,31.68
2023-03-05T13:53:54.771Z,31.80
2023-03-05T13:56:24.491Z,31.72
2023-03-05T13:58:54.812Z,31.73
2023-03-05T14:01:30.218Z,31.65
2023-03-05T14:04:01.336Z,31.64
2023-03-05T14:06:31.099Z,31.71
2023-03-05T14:09:07.107Z,31.73
2023-03-05T14:11:37.359Z,31.64
2023-03-05T14:14:11.045Z,31.73
2023-03-05T14:16:39.232Z,31.68
2023-03-05T14:19:09.283Z,31.64
2023-03-05T14:21:49.590Z,31.61
2023-03-05T14:24:23.659Z,31.63
2023-03-05T14:26:56.819Z,31.73
2023-03-05T14:29:27.576Z,31.71
2023-03-05T14:31:58.344Z,31.59
2023-03-05T14:34:30.231Z,31.70
2023-03-05T14:37:03.246Z,31.61
2023-03-05T14:39:46.710Z,31.41
2023-03-05T14:42:31.995Z,31.42
2023-03-05T14:45:01.977Z,31.71
2023-03-05T14:47:30.426Z,31.65
2023-03-05T14:49:58.647Z,31.63
2023-03-05T14:52:28.318Z,31.62
2023-03-05T14:54:57.296Z,31.65
2023-03-05T14:57:29.425Z,31.60
2023-03-05T14:59:57.480Z,31.59
2023-03-05T15:02:27.985Z,31.52
2023-03-05T15:04:56.157Z,31.70
2023-03-05T15:07:28.127Z,31.77
2023-03-05T15:09:56.360Z,31.63
2023-03-05T15:12:25.515Z,31.69
2023-03-05T15:14:56.424Z,31.46
2023-03-05T15:17:31.030Z,31.65
2023-03-05T15:19:59.119Z,31.56
2023-03-05T15:22:27.311Z,31.59
2023-03-05T15:24:55.508Z,31.40
2023-03-05T15:27:23.605Z,31.46
2023-03-05T15:29:51.912Z,31.56
2023-03-05T15:32:21.461Z,31.64
2023-03-05T15:34:49.932Z,31.67
2023-03-05T15:37:18.022Z,31.54
2023-03-05T15:39:46.109Z,31.52
2023-03-05T15:42:14.254Z,31.55
2023-03-05T15:44:42.539Z,31.49
2023-03-05T15:47:11.124Z,31.58
2023-03-05T15:49:40.652Z,31.66
2023-03-05T15:52:08.809Z,31.48
2023-03-05T15:54:37.665Z,31.56
2023-03-05T15:57:10.731Z,31.54
2023-03-05T15:59:38.864Z,31.68
2023-03-05T16:02:07.962Z,31.59
2023-03-05T16:04:36.078Z,31.57
2023-03-05T16:07:06.865Z,31.61
2023-03-05T16:09:38.622Z,31.67
2023-03-05T16:12:11.696Z,31.60
2023-03-05T16:14:41.600Z,31.40
2023-03-05T16:17:10.299Z,31.56
2023-03-05T16:19:43.421Z,31.58
2023-03-05T16:22:12.906Z,31.63
2023-03-05T16:24:41.037Z,31.60
2023-03-05T16:27:09.181Z,31.73
2023-03-05T16:29:37.268Z,31.78
2023-03-05T16:32:06.538Z,31.72
2023-03-05T16:34:35.006Z,31.63
2023-03-05T16:37:04.783Z,31.88
2023-03-05T16:39:34.334Z,31.86
2023-03-05T16:42:03.253Z,31.89
2023-03-05T16:44:31.380Z,31.87
2023-03-05T16:46:59.537Z,31.94
2023-03-05T16:49:27.792Z,32.01
2023-03-05T16:51:56.675Z,32.02
2023-03-05T16:54:26.049Z,32.13
2023-03-05T16:56:56.316Z,32.13
2023-03-05T16:59:24.581Z,32.01
2023-03-05T17:01:53.584Z,31.92
2023-03-05T17:04:21.851Z,32.11
2023-03-05T17:06:50.408Z,32.04
2023-03-05T17:09:19.504Z,32.07
2023-03-05T17:11:47.621Z,31.89
2023-03-05T17:14:17.144Z,31.99
2023-03-05T17:16:45.354Z,32.00
2023-03-05T17:19:13.772Z,32.00
2023-03-05T17:21:42.732Z,31.96
2023-03-05T17:24:11.457Z,31.95
2023-03-05T17:26:39.619Z,32.03
2023-03-05T17:29:08.479Z,32.04
2023-03-05T17:31:38.002Z,31.96
2023-03-05T17:34:06.165Z,31.91
2023-03-05T17:36:34.259Z,32.27
2023-03-05T17:39:02.380Z,31.93
2023-03-05T17:41:30.445Z,32.00
2023-03-05T17:43:58.544Z,31.90
2023-03-05T17:46:26.625Z,31.97
2023-03-05T17:48:57.171Z,32.34
2023-03-05T17:51:25.240Z,32.01
2023-03-05T17:53:53.357Z,31.96
2023-03-05T17:56:22.261Z,32.00
2023-03-05T17:58:50.748Z,31.90
2023-03-05T18:01:27.665Z,31.83
2023-03-05T18:03:58.050Z,32.07
2023-03-05T18:06:26.312Z,31.99
2023-03-05T18:08:54.427Z,32.00
2023-03-05T18:11:22.554Z,31.97
2023-03-05T18:13:51.077Z,31.93
2023-03-05T18:16:19.257Z,31.92
2023-03-05T18:18:47.412Z,31.99
2023-03-05T18:21:21.861Z,31.94
2023-03-05T18:23:51.132Z,31.99
2023-03-05T18:26:19.555Z,31.89
2023-03-05T18:28:47.650Z,32.01
2023-03-05T18:31:15.762Z,32.02
2023-03-05T18:33:44.333Z,32.10
2023-03-05T18:36:12.594Z,31.99
2023-03-05T18:38:42.378Z,32.09
2023-03-05T18:41:10.587Z,31.98
2023-03-05T18:43:40.682Z,31.96
2023-03-05T18:46:08.977Z,32.06
2023-03-05T18:48:37.216Z,31.99
2023-03-05T18:51:05.756Z,32.07
2023-03-05T18:53:33.966Z,31.97
2023-03-05T18:56:03.688Z,32.17
2023-03-05T18:58:31.806Z,32.10
2023-03-05T19:01:00.092Z,32.07
2023-03-05T19:03:28.318Z,31.81
2023-03-05T19:05:56.549Z,31.90
2023-03-05T19:08:24.703Z,32.00
2023-03-05T19:10:53.019Z,31.99
2023-03-05T19:13:34.856Z,31.96
2023-03-05T19:16:08.259Z,31.86
2023-03-05T19:18:43.192Z,32.06
2023-03-05T19:21:11.740Z,32.13
2023-03-05T19:23:39.915Z,31.86
2023-03-05T19:26:08.418Z,32.12
2023-03-05T19:28:38.011Z,32.06
2023-03-05T19:31:06.451Z,32.07
2023-03-05T19:33:34.633Z,32.11
2023-03-05T19:36:02.842Z,32.01
2023-03-05T19:38:31.014Z,32.16
2023-03-05T19:40:59.197Z,31.99
2023-03-05T19:43:27.408Z,31.98
2023-03-05T19:46:03.345Z,32.00
2023-03-05T19:48:31.632Z,32.05
2023-03-05T19:50:59.709Z,32.00
2023-03-05T19:53:28.010Z,32.11
2023-03-05T19:55:56.636Z,32.13
2023-03-05T19:58:25.103Z,32.06
2023-03-05T20:00:53.170Z,32.00
2023-03-05T20:03:22.747Z,31.98
2023-03-05T20:05:50.978Z,32.01
2023-03-05T20:08:19.069Z,32.05
2023-03-05T20:10:47.132Z,32.14
2023-03-05T20:13:15.174Z,32.11
2023-03-05T20:15:43.413Z,32.11
2023-03-05T20:18:11.705Z,32.11
2023-03-05T20:20:41.210Z,32.04
2023-03-05T20:23:09.315Z,32.04
2023-03-05T20:25:39.589Z,32.06
2023-03-05T20:28:08.314Z,32.07
2023-03-05T20:30:36.383Z,32.12
2023-03-05T20:33:04.629Z,31.94
2023-03-05T20:35:32.822Z,32.00
2023-03-05T20:38:20.798Z,31.87
2023-03-05T20:40:49.504Z,32.00
2023-03-05T20:43:18.164Z,32.04
2023-03-05T20:45:46.373Z,31.94
2023-03-05T20:48:14.522Z,32.04
2023-03-05T20:50:43.031Z,32.16
2023-03-05T20:53:12.710Z,31.91
2023-03-05T20:55:40.831Z,32.10
2023-03-05T20:58:09.929Z,32.00
2023-03-05T21:00:38.672Z,32.13
2023-03-05T21:03:07.371Z,31.96
2023-03-05T21:05:36.835Z,31.98
2023-03-05T21:08:05.882Z,31.87
2023-03-05T21:10:35.486Z,31.99
2023-03-05T21:13:03.851Z,31.99
2023-03-05T21:15:32.492Z,32.01
2023-03-05T21:18:00.621Z,32.03
2023-03-05T21:20:30.849Z,32.03
2023-03-05T21:22:59.747Z,31.94
2023-03-05T21:25:29.530Z,32.00
2023-03-05T21:28:01.249Z,32.04
2023-03-05T21:30:31.760Z,31.91
2023-03-05T21:33:00.670Z,31.89
2023-03-05T21:35:29.865Z,31.84
2023-03-05T21:37:57.998Z,31.91
2023-03-05T21:40:26.687Z,31.85
2023-03-05T21:42:55.016Z,31.98
2023-03-05T21:45:26.555Z,31.91
2023-03-05T21:47:56.208Z,31.82
2023-03-05T21:50:25.950Z,31.73
2023-03-05T21:52:54.674Z,31.84
2023-03-05T21:55:30.755Z,31.83
2023-03-05T21:57:58.884Z,31.96
2023-03-05T22:00:28.434Z,31.99
2023-03-05T22:02:56.490Z,31.75
2023-03-05T22:05:24.775Z,31.91
2023-03-05T22:07:52.888Z,31.86
2023-03-05T22:10:22.245Z,31.87
2023-03-05T22:12:56.857Z,31.93
2023-03-05T22:15:25.032Z,31.85
2023-03-05T22:17:54.520Z,31.86
2023-03-05T22:20:23.491Z,31.82
2023-03-05T22:22:51.892Z,31.68
2023-03-05T22:25:20.449Z,31.86
2023-03-05T22:27:48.582Z,31.98
2023-03-05T22:30:16.896Z,31.87
2023-03-05T22:32:45.052Z,31.91
2023-03-05T22:35:16.737Z,31.85
2023-03-05T22:37:45.052Z,31.85
2023-03-05T22:40:17.231Z,31.76
2023-03-05T22:42:45.912Z,31.85
2023-03-05T22:45:15.299Z,31.91
2023-03-05T22:47:43.429Z,31.95
2023-03-05T22:50:12.832Z,31.96
2023-03-05T22:52:42.731Z,31.86
2023-03-05T22:55:13.704Z,31.96
2023-03-05T22:57:41.982Z,31.78
2023-03-05T23:00:14.551Z,31.78
2023-03-05T23:02:43.231Z,31.77
2023-03-05T23:05:12.488Z,31.77
2023-03-05T23:07:43.420Z,31.89
2023-03-05T23:10:14.589Z,31.79
2023-03-05T23:12:46.277Z,31.96
2023-03-05T23:15:16.805Z,31.95
2023-03-05T23:17:44.929Z,31.84
2023-03-05T23:20:16.989Z,31.90
2023-03-05T23:22:46.766Z,31.70
2023-03-05T23:25:16.221Z,31.81
2023-03-05T23:27:44.578Z,31.87
2023-03-05T23:30:19.693Z,31.94
2023-03-05T23:32:53.224Z,31.83
2023-03-05T23:35:24.926Z,31.92
2023-03-05T23:37:55.741Z,31.84
2023-03-05T23:40:26.148Z,31.76
2023-03-05T23:42:54.918Z,31.75
2023-03-05T23:45:24.394Z,31.73
2023-03-05T23:47:53.270Z,31.81
2023-03-05T23:50:23.750Z,31.87
2023-03-05T23:52:54.105Z,31.86
2023-03-05T23:55:26.195Z,31.84
2023-03-05T23:57:55.240Z,31.83
